Dublin, Ohio
Current Conditions -  °F | °C
As of 10:53 AM on Wednesday 22 Oct 2014 (Local Time) from KOSU Reporting Station
Overcast Overcast  
Wind Chill: 42°   Ceiling: 1100
Heat Index: 47°   Visibility: 10mi
Dew Point: 42°   Wind: 12mph
Humidity: 83%   Direction: 350°N
Pressure: 30.27"   Gusts: NA
Location:  40.11°N, 83.13°W
Report Text: KOSU 221453Z 35010KT 10SM OVC011 08/06 A3027 RMK AO2 SLP254 T00830056 53013
Loading
Personal Weather Stations






























Interactive Weather Map
Tropical Storm Tracking
New forecast layout! Learn more

10-Day Weather Forecast

Advertisements
Track Severe Weather on mobile